<?xml version="1.0" encoding="UTF-8" standalone="no" ?>
<gpx xmlns="http://www.topografix.com/GPX/1/1" xmlns:xsi="http://www.w3.org/2001/XMLSchema-instance" xsi:schemaLocation="http://www.topografix.com/GPX/1/1 http://www.topografix.com/GPX/1/1/gpx.xsd" version="1.1" creator="VisuGPX - https://www.visugpx.com">
  <metadata>
    <name>boucles beaumont</name>
    <desc><![CDATA[boucles beaumont du périgord]]></desc>
  </metadata>
  <trk>
    <name><![CDATA[BBmt49]]></name>
    <trkseg>
      <trkpt lat="44.76923" lon="0.75878">
        <ele>76</ele>
        <time>2009-01-15T13:42:03Z</time>
      </trkpt>
      <trkpt lat="44.76923" lon="0.7591">
        <ele>72</ele>
        <time>2009-01-15T13:42:41Z</time>
      </trkpt>
      <trkpt lat="44.76928" lon="0.7594">
        <ele>70</ele>
        <time>2009-01-15T13:42:45Z</time>
      </trkpt>
      <trkpt lat="44.7693" lon="0.75973">
        <ele>68</ele>
        <time>2009-01-15T13:42:49Z</time>
      </trkpt>
      <trkpt lat="44.7693" lon="0.76005">
        <ele>69</ele>
        <time>2009-01-15T13:42:54Z</time>
      </trkpt>
      <trkpt lat="44.76928" lon="0.76033">
        <ele>71</ele>
        <time>2009-01-15T13:42:57Z</time>
      </trkpt>
      <trkpt lat="44.76928" lon="0.7606">
        <ele>73</ele>
        <time>2009-01-15T13:43:00Z</time>
      </trkpt>
      <trkpt lat="44.7693" lon="0.7609">
        <ele>75</ele>
        <time>2009-01-15T13:43:03Z</time>
      </trkpt>
      <trkpt lat="44.7693" lon="0.7612">
        <ele>77</ele>
        <time>2009-01-15T13:43:06Z</time>
      </trkpt>
      <trkpt lat="44.7693" lon="0.76148">
        <ele>79</ele>
        <time>2009-01-15T13:43:09Z</time>
      </trkpt>
      <trkpt lat="44.76913" lon="0.76163">
        <ele>83</ele>
        <time>2009-01-15T13:43:22Z</time>
      </trkpt>
      <trkpt lat="44.7689" lon="0.7617">
        <ele>86</ele>
        <time>2009-01-15T13:43:26Z</time>
      </trkpt>
      <trkpt lat="44.76873" lon="0.76193">
        <ele>90</ele>
        <time>2009-01-15T13:43:30Z</time>
      </trkpt>
      <trkpt lat="44.76858" lon="0.76213">
        <ele>92</ele>
        <time>2009-01-15T13:43:33Z</time>
      </trkpt>
      <trkpt lat="44.76843" lon="0.76235">
        <ele>95</ele>
        <time>2009-01-15T13:43:36Z</time>
      </trkpt>
      <trkpt lat="44.7683" lon="0.76258">
        <ele>97</ele>
        <time>2009-01-15T13:43:39Z</time>
      </trkpt>
      <trkpt lat="44.7682" lon="0.7628">
        <ele>103</ele>
        <time>2009-01-15T13:43:42Z</time>
      </trkpt>
      <trkpt lat="44.7681" lon="0.7631">
        <ele>108</ele>
        <time>2009-01-15T13:43:46Z</time>
      </trkpt>
      <trkpt lat="44.768" lon="0.76335">
        <ele>109</ele>
        <time>2009-01-15T13:43:50Z</time>
      </trkpt>
      <trkpt lat="44.76788" lon="0.76355">
        <ele>112</ele>
        <time>2009-01-15T13:43:53Z</time>
      </trkpt>
      <trkpt lat="44.76773" lon="0.7637">
        <ele>116</ele>
        <time>2009-01-15T13:43:57Z</time>
      </trkpt>
      <trkpt lat="44.76758" lon="0.76385">
        <ele>119</ele>
        <time>2009-01-15T13:44:02Z</time>
      </trkpt>
      <trkpt lat="44.7674" lon="0.76405">
        <ele>121</ele>
        <time>2009-01-15T13:44:07Z</time>
      </trkpt>
      <trkpt lat="44.76725" lon="0.76425">
        <ele>121</ele>
        <time>2009-01-15T13:44:12Z</time>
      </trkpt>
      <trkpt lat="44.76723" lon="0.76458">
        <ele>121</ele>
        <time>2009-01-15T13:44:17Z</time>
      </trkpt>
      <trkpt lat="44.76723" lon="0.76488">
        <ele>123</ele>
        <time>2009-01-15T13:44:20Z</time>
      </trkpt>
      <trkpt lat="44.76723" lon="0.7652">
        <ele>125</ele>
        <time>2009-01-15T13:44:23Z</time>
      </trkpt>
      <trkpt lat="44.76725" lon="0.76548">
        <ele>127</ele>
        <time>2009-01-15T13:44:26Z</time>
      </trkpt>
      <trkpt lat="44.7673" lon="0.76573">
        <ele>134</ele>
        <time>2009-01-15T13:44:46Z</time>
      </trkpt>
      <trkpt lat="44.76748" lon="0.76583">
        <ele>133</ele>
        <time>2009-01-15T13:44:51Z</time>
      </trkpt>
      <trkpt lat="44.76763" lon="0.766">
        <ele>136</ele>
        <time>2009-01-15T13:44:59Z</time>
      </trkpt>
      <trkpt lat="44.7678" lon="0.7662">
        <ele>136</ele>
        <time>2009-01-15T13:45:03Z</time>
      </trkpt>
      <trkpt lat="44.76795" lon="0.76638">
        <ele>137</ele>
        <time>2009-01-15T13:45:06Z</time>
      </trkpt>
      <trkpt lat="44.76815" lon="0.76658">
        <ele>136</ele>
        <time>2009-01-15T13:45:10Z</time>
      </trkpt>
      <trkpt lat="44.76835" lon="0.76658">
        <ele>133</ele>
        <time>2009-01-15T13:45:14Z</time>
      </trkpt>
      <trkpt lat="44.76858" lon="0.76655">
        <ele>129</ele>
        <time>2009-01-15T13:45:18Z</time>
      </trkpt>
      <trkpt lat="44.76888" lon="0.76645">
        <ele>130</ele>
        <time>2009-01-15T13:45:23Z</time>
      </trkpt>
    </trkseg>
  </trk>
</gpx>